sensor_id;sensor_type;location;lat;lon;timestamp;temperature;humidity
9215;DHT22;4642;51.364;6.788;2022-10-26T00:00:44;9.90;99.90
9215;DHT22;4642;51.364;6.788;2022-10-26T00:03:10;9.90;99.90
9215;DHT22;4642;51.364;6.788;2022-10-26T00:05:36;9.90;99.90
9215;DHT22;4642;51.364;6.788;2022-10-26T00:08:02;10.00;99.90
9215;DHT22;4642;51.364;6.788;2022-10-26T00:10:27;10.00;99.90
9215;DHT22;4642;51.364;6.788;2022-10-26T00:12:53;10.00;99.90
9215;DHT22;4642;51.364;6.788;2022-10-26T00:15:19;10.00;99.90
9215;DHT22;4642;51.364;6.788;2022-10-26T00:17:46;10.00;99.90
9215;DHT22;4642;51.364;6.788;2022-10-26T00:20:13;10.00;99.90
9215;DHT22;4642;51.364;6.788;2022-10-26T00:22:39;10.10;99.90
9215;DHT22;4642;51.364;6.788;2022-10-26T00:25:05;10.10;99.90
9215;DHT22;4642;51.364;6.788;2022-10-26T00:27:31;10.10;99.90
9215;DHT22;4642;51.364;6.788;2022-10-26T00:30:08;10.10;99.90
9215;DHT22;4642;51.364;6.788;2022-10-26T00:32:33;10.20;99.90
9215;DHT22;4642;51.364;6.788;2022-10-26T00:34:59;10.20;99.90
9215;DHT22;4642;51.364;6.788;2022-10-26T00:37:25;10.20;99.90
9215;DHT22;4642;51.364;6.788;2022-10-26T00:39:51;10.20;99.90
9215;DHT22;4642;51.364;6.788;2022-10-26T00:42:18;10.30;99.90
9215;DHT22;4642;51.364;6.788;2022-10-26T00:47:31;10.40;99.90
9215;DHT22;4642;51.364;6.788;2022-10-26T00:50:03;10.40;99.90
9215;DHT22;4642;51.364;6.788;2022-10-26T00:52:29;10.40;99.90
9215;DHT22;4642;51.364;6.788;2022-10-26T00:54:55;10.50;99.90
9215;DHT22;4642;51.364;6.788;2022-10-26T00:57:21;10.50;99.90
9215;DHT22;4642;51.364;6.788;2022-10-26T00:59:48;10.50;99.90
9215;DHT22;4642;51.364;6.788;2022-10-26T01:02:15;10.60;99.90
9215;DHT22;4642;51.364;6.788;2022-10-26T01:04:41;10.60;99.90
9215;DHT22;4642;51.364;6.788;2022-10-26T01:07:07;10.60;99.90
9215;DHT22;4642;51.364;6.788;2022-10-26T01:09:34;10.60;99.90
9215;DHT22;4642;51.364;6.788;2022-10-26T01:12:00;10.60;99.90
9215;DHT22;4642;51.364;6.788;2022-10-26T01:14:27;10.60;99.90
9215;DHT22;4642;51.364;6.788;2022-10-26T01:20:36;10.70;99.90
9215;DHT22;4642;51.364;6.788;2022-10-26T01:26:33;10.70;99.90
9215;DHT22;4642;51.364;6.788;2022-10-26T01:31:59;10.90;99.90
9215;DHT22;4642;51.364;6.788;2022-10-26T01:34:42;10.90;99.90
9215;DHT22;4642;51.364;6.788;2022-10-26T01:37:12;10.90;99.90
9215;DHT22;4642;51.364;6.788;2022-10-26T01:39:44;10.90;99.90
9215;DHT22;4642;51.364;6.788;2022-10-26T01:42:14;11.00;99.90
9215;DHT22;4642;51.364;6.788;2022-10-26T01:45:05;11.00;99.90
9215;DHT22;4642;51.364;6.788;2022-10-26T01:47:33;11.10;99.90
9215;DHT22;4642;51.364;6.788;2022-10-26T01:50:00;11.10;99.90
9215;DHT22;4642;51.364;6.788;2022-10-26T01:52:26;11.10;99.90
9215;DHT22;4642;51.364;6.788;2022-10-26T01:55:00;11.20;99.90
9215;DHT22;4642;51.364;6.788;2022-10-26T01:57:26;11.20;99.90
9215;DHT22;4642;51.364;6.788;2022-10-26T02:00:05;11.30;99.90
9215;DHT22;4642;51.364;6.788;2022-10-26T02:05:58;11.30;99.90
9215;DHT22;4642;51.364;6.788;2022-10-26T02:11:40;11.40;99.90
9215;DHT22;4642;51.364;6.788;2022-10-26T02:14:10;11.50;99.90
9215;DHT22;4642;51.364;6.788;2022-10-26T02:19:42;11.50;99.90
9215;DHT22;4642;51.364;6.788;2022-10-26T02:24:40;11.60;99.90
9215;DHT22;4642;51.364;6.788;2022-10-26T02:27:09;11.60;99.90
9215;DHT22;4642;51.364;6.788;2022-10-26T02:29:37;11.70;99.90
9215;DHT22;4642;51.364;6.788;2022-10-26T02:32:06;11.60;99.90
9215;DHT22;4642;51.364;6.788;2022-10-26T02:34:35;11.70;99.90
9215;DHT22;4642;51.364;6.788;2022-10-26T02:37:03;11.70;99.90
9215;DHT22;4642;51.364;6.788;2022-10-26T02:39:31;11.80;99.90
9215;DHT22;4642;51.364;6.788;2022-10-26T02:42:00;11.80;99.90
9215;DHT22;4642;51.364;6.788;2022-10-26T02:44:29;11.80;99.90
9215;DHT22;4642;51.364;6.788;2022-10-26T02:46:56;11.80;99.90
9215;DHT22;4642;51.364;6.788;2022-10-26T02:49:23;11.80;99.90
9215;DHT22;4642;51.364;6.788;2022-10-26T02:54:18;11.90;99.90
9215;DHT22;4642;51.364;6.788;2022-10-26T02:56:56;11.90;99.90
9215;DHT22;4642;51.364;6.788;2022-10-26T02:59:27;12.00;99.90
9215;DHT22;4642;51.364;6.788;2022-10-26T03:01:53;12.00;99.90
9215;DHT22;4642;51.364;6.788;2022-10-26T03:04:19;12.00;99.90
9215;DHT22;4642;51.364;6.788;2022-10-26T03:06:53;12.00;99.90
9215;DHT22;4642;51.364;6.788;2022-10-26T03:09:18;12.00;99.90
9215;DHT22;4642;51.364;6.788;2022-10-26T03:11:44;12.10;99.90
9215;DHT22;4642;51.364;6.788;2022-10-26T03:14:09;12.10;99.90
9215;DHT22;4642;51.364;6.788;2022-10-26T03:16:35;12.10;99.90
9215;DHT22;4642;51.364;6.788;2022-10-26T03:19:00;12.10;99.90
9215;DHT22;4642;51.364;6.788;2022-10-26T03:21:26;12.10;99.90
9215;DHT22;4642;51.364;6.788;2022-10-26T03:23:53;12.20;99.90
9215;DHT22;4642;51.364;6.788;2022-10-26T03:26:18;12.20;99.90
9215;DHT22;4642;51.364;6.788;2022-10-26T03:28:44;12.20;99.90
9215;DHT22;4642;51.364;6.788;2022-10-26T03:31:09;12.30;99.90
9215;DHT22;4642;51.364;6.788;2022-10-26T03:33:35;12.30;99.90
9215;DHT22;4642;51.364;6.788;2022-10-26T03:36:00;12.30;99.90
9215;DHT22;4642;51.364;6.788;2022-10-26T03:38:26;12.30;99.90
9215;DHT22;4642;51.364;6.788;2022-10-26T03:40:51;12.30;99.90
9215;DHT22;4642;51.364;6.788;2022-10-26T03:43:17;12.30;99.90
9215;DHT22;4642;51.364;6.788;2022-10-26T03:45:43;12.30;99.90
9215;DHT22;4642;51.364;6.788;2022-10-26T03:48:08;12.40;99.90
9215;DHT22;4642;51.364;6.788;2022-10-26T03:50:34;12.40;99.90
9215;DHT22;4642;51.364;6.788;2022-10-26T03:52:59;12.40;99.90
9215;DHT22;4642;51.364;6.788;2022-10-26T03:55:25;12.50;99.90
9215;DHT22;4642;51.364;6.788;2022-10-26T03:57:50;12.50;99.90
9215;DHT22;4642;51.364;6.788;2022-10-26T04:00:16;12.60;99.90
9215;DHT22;4642;51.364;6.788;2022-10-26T04:02:43;12.60;99.90
9215;DHT22;4642;51.364;6.788;2022-10-26T04:05:12;12.60;99.90
9215;DHT22;4642;51.364;6.788;2022-10-26T04:07:38;12.70;99.90
9215;DHT22;4642;51.364;6.788;2022-10-26T04:10:04;12.70;99.90
9215;DHT22;4642;51.364;6.788;2022-10-26T04:12:30;12.70;99.90
9215;DHT22;4642;51.364;6.788;2022-10-26T04:14:55;12.70;99.90
9215;DHT22;4642;51.364;6.788;2022-10-26T04:17:23;12.80;99.90
9215;DHT22;4642;51.364;6.788;2022-10-26T04:19:49;12.80;99.90
9215;DHT22;4642;51.364;6.788;2022-10-26T04:22:15;12.80;99.90
9215;DHT22;4642;51.364;6.788;2022-10-26T04:24:40;12.90;99.90
9215;DHT22;4642;51.364;6.788;2022-10-26T04:27:05;12.90;99.90
9215;DHT22;4642;51.364;6.788;2022-10-26T04:29:31;13.00;99.90
9215;DHT22;4642;51.364;6.788;2022-10-26T04:31:57;13.00;99.90
9215;DHT22;4642;51.364;6.788;2022-10-26T04:34:22;13.00;99.90
9215;DHT22;4642;51.364;6.788;2022-10-26T04:36:48;13.00;99.90
9215;DHT22;4642;51.364;6.788;2022-10-26T04:39:13;13.10;99.90
9215;DHT22;4642;51.364;6.788;2022-10-26T04:41:39;13.00;99.90
9215;DHT22;4642;51.364;6.788;2022-10-26T04:44:04;13.20;99.90
9215;DHT22;4642;51.364;6.788;2022-10-26T04:46:30;13.20;99.90
9215;DHT22;4642;51.364;6.788;2022-10-26T04:48:55;13.20;99.90
9215;DHT22;4642;51.364;6.788;2022-10-26T04:51:21;13.20;99.90
9215;DHT22;4642;51.364;6.788;2022-10-26T04:53:46;13.20;99.90
9215;DHT22;4642;51.364;6.788;2022-10-26T04:56:12;13.20;99.90
9215;DHT22;4642;51.364;6.788;2022-10-26T04:58:37;13.30;99.90
9215;DHT22;4642;51.364;6.788;2022-10-26T05:01:03;13.30;99.90
9215;DHT22;4642;51.364;6.788;2022-10-26T05:03:29;13.30;99.90
9215;DHT22;4642;51.364;6.788;2022-10-26T05:05:57;13.40;99.90
9215;DHT22;4642;51.364;6.788;2022-10-26T05:08:23;13.40;99.90
9215;DHT22;4642;51.364;6.788;2022-10-26T05:10:49;13.40;99.90
9215;DHT22;4642;51.364;6.788;2022-10-26T05:13:15;13.40;99.90
9215;DHT22;4642;51.364;6.788;2022-10-26T05:15:41;13.40;99.90
9215;DHT22;4642;51.364;6.788;2022-10-26T05:18:07;13.40;99.90
9215;DHT22;4642;51.364;6.788;2022-10-26T05:20:34;13.40;99.90
9215;DHT22;4642;51.364;6.788;2022-10-26T05:23:05;13.40;99.90
9215;DHT22;4642;51.364;6.788;2022-10-26T05:25:34;13.40;99.90
9215;DHT22;4642;51.364;6.788;2022-10-26T05:28:09;13.40;99.90
9215;DHT22;4642;51.364;6.788;2022-10-26T05:30:37;13.50;99.90
9215;DHT22;4642;51.364;6.788;2022-10-26T05:33:03;13.40;99.90
9215;DHT22;4642;51.364;6.788;2022-10-26T05:35:30;13.40;99.90
9215;DHT22;4642;51.364;6.788;2022-10-26T05:37:56;13.40;99.90
9215;DHT22;4642;51.364;6.788;2022-10-26T05:40:22;13.40;99.90
9215;DHT22;4642;51.364;6.788;2022-10-26T05:42:47;13.40;99.90
9215;DHT22;4642;51.364;6.788;2022-10-26T05:45:15;13.30;99.90
9215;DHT22;4642;51.364;6.788;2022-10-26T05:47:43;13.40;99.90
9215;DHT22;4642;51.364;6.788;2022-10-26T05:50:10;13.40;99.90
9215;DHT22;4642;51.364;6.788;2022-10-26T05:52:39;13.30;99.90
9215;DHT22;4642;51.364;6.788;2022-10-26T05:55:10;13.30;99.90
9215;DHT22;4642;51.364;6.788;2022-10-26T05:57:37;13.30;99.90
9215;DHT22;4642;51.364;6.788;2022-10-26T06:00:07;13.30;99.90
9215;DHT22;4642;51.364;6.788;2022-10-26T06:02:41;13.30;99.90
9215;DHT22;4642;51.364;6.788;2022-10-26T06:05:16;13.30;99.90
9215;DHT22;4642;51.364;6.788;2022-10-26T06:07:43;13.30;99.90
9215;DHT22;4642;51.364;6.788;2022-10-26T06:10:10;13.30;99.90
9215;DHT22;4642;51.364;6.788;2022-10-26T06:12:36;13.30;99.90
9215;DHT22;4642;51.364;6.788;2022-10-26T06:15:03;13.30;99.90
9215;DHT22;4642;51.364;6.788;2022-10-26T06:17:41;13.40;99.90
9215;DHT22;4642;51.364;6.788;2022-10-26T06:23:11;13.30;99.90
9215;DHT22;4642;51.364;6.788;2022-10-26T06:30:44;13.40;99.90
9215;DHT22;4642;51.364;6.788;2022-10-26T06:33:11;13.40;99.90
9215;DHT22;4642;51.364;6.788;2022-10-26T06:38:11;13.40;99.90
9215;DHT22;4642;51.364;6.788;2022-10-26T06:40:40;13.40;99.90
9215;DHT22;4642;51.364;6.788;2022-10-26T06:43:23;13.40;99.90
9215;DHT22;4642;51.364;6.788;2022-10-26T06:45:55;13.40;99.90
9215;DHT22;4642;51.364;6.788;2022-10-26T06:48:27;13.40;99.90
9215;DHT22;4642;51.364;6.788;2022-10-26T06:50:54;13.40;99.90
9215;DHT22;4642;51.364;6.788;2022-10-26T06:53:41;13.40;99.90
9215;DHT22;4642;51.364;6.788;2022-10-26T06:56:10;13.50;99.90
9215;DHT22;4642;51.364;6.788;2022-10-26T06:58:36;13.50;99.90
9215;DHT22;4642;51.364;6.788;2022-10-26T07:01:03;13.50;99.90
9215;DHT22;4642;51.364;6.788;2022-10-26T07:03:28;13.60;99.90
9215;DHT22;4642;51.364;6.788;2022-10-26T07:05:54;13.60;99.90
9215;DHT22;4642;51.364;6.788;2022-10-26T07:08:20;13.60;99.90
9215;DHT22;4642;51.364;6.788;2022-10-26T07:10:45;13.70;99.90
9215;DHT22;4642;51.364;6.788;2022-10-26T07:13:11;13.70;99.90
9215;DHT22;4642;51.364;6.788;2022-10-26T07:15:37;13.70;99.90
9215;DHT22;4642;51.364;6.788;2022-10-26T07:18:05;13.80;99.90
9215;DHT22;4642;51.364;6.788;2022-10-26T07:20:34;13.80;99.90
9215;DHT22;4642;51.364;6.788;2022-10-26T07:23:00;13.80;99.90
9215;DHT22;4642;51.364;6.788;2022-10-26T07:25:26;13.80;99.90
9215;DHT22;4642;51.364;6.788;2022-10-26T07:27:56;13.80;99.90
9215;DHT22;4642;51.364;6.788;2022-10-26T07:30:23;13.90;99.90
9215;DHT22;4642;51.364;6.788;2022-10-26T07:32:48;13.90;99.90
9215;DHT22;4642;51.364;6.788;2022-10-26T07:35:14;13.90;99.90
9215;DHT22;4642;51.364;6.788;2022-10-26T07:37:39;13.90;99.90
9215;DHT22;4642;51.364;6.788;2022-10-26T07:40:05;14.00;99.90
9215;DHT22;4642;51.364;6.788;2022-10-26T07:42:31;14.00;99.90
9215;DHT22;4642;51.364;6.788;2022-10-26T07:44:56;14.00;99.90
9215;DHT22;4642;51.364;6.788;2022-10-26T07:47:22;14.10;99.90
9215;DHT22;4642;51.364;6.788;2022-10-26T07:49:48;14.10;99.90
9215;DHT22;4642;51.364;6.788;2022-10-26T07:52:13;14.20;99.90
9215;DHT22;4642;51.364;6.788;2022-10-26T07:54:39;14.20;99.90
9215;DHT22;4642;51.364;6.788;2022-10-26T07:57:04;14.30;99.90
9215;DHT22;4642;51.364;6.788;2022-10-26T07:59:29;14.30;99.90
9215;DHT22;4642;51.364;6.788;2022-10-26T08:01:55;14.40;99.90
9215;DHT22;4642;51.364;6.788;2022-10-26T08:04:20;14.40;99.90
9215;DHT22;4642;51.364;6.788;2022-10-26T08:06:46;14.40;99.90
9215;DHT22;4642;51.364;6.788;2022-10-26T08:09:13;14.50;99.90
9215;DHT22;4642;51.364;6.788;2022-10-26T08:11:38;14.50;99.90
9215;DHT22;4642;51.364;6.788;2022-10-26T08:14:04;14.50;99.90
9215;DHT22;4642;51.364;6.788;2022-10-26T08:16:30;14.60;99.90
9215;DHT22;4642;51.364;6.788;2022-10-26T08:18:56;14.60;99.90
9215;DHT22;4642;51.364;6.788;2022-10-26T08:21:21;14.60;99.90
9215;DHT22;4642;51.364;6.788;2022-10-26T08:23:47;14.60;99.90
9215;DHT22;4642;51.364;6.788;2022-10-26T08:26:12;14.70;99.90
9215;DHT22;4642;51.364;6.788;2022-10-26T08:28:39;14.70;99.90
9215;DHT22;4642;51.364;6.788;2022-10-26T08:31:05;14.80;99.90
9215;DHT22;4642;51.364;6.788;2022-10-26T08:33:31;14.80;99.90
9215;DHT22;4642;51.364;6.788;2022-10-26T08:35:58;14.80;99.90
9215;DHT22;4642;51.364;6.788;2022-10-26T08:38:25;14.90;99.90
9215;DHT22;4642;51.364;6.788;2022-10-26T08:40:51;14.90;99.90
9215;DHT22;4642;51.364;6.788;2022-10-26T08:43:31;14.90;99.90
9215;DHT22;4642;51.364;6.788;2022-10-26T08:46:10;14.90;99.90
9215;DHT22;4642;51.364;6.788;2022-10-26T08:48:41;15.00;99.90
9215;DHT22;4642;51.364;6.788;2022-10-26T08:51:16;15.00;99.90
9215;DHT22;4642;51.364;6.788;2022-10-26T08:53:49;15.10;99.90
9215;DHT22;4642;51.364;6.788;2022-10-26T08:56:56;15.10;99.90
9215;DHT22;4642;51.364;6.788;2022-10-26T08:59:33;15.20;99.90
9215;DHT22;4642;51.364;6.788;2022-10-26T09:02:00;15.30;99.90
9215;DHT22;4642;51.364;6.788;2022-10-26T09:04:28;15.30;99.90
9215;DHT22;4642;51.364;6.788;2022-10-26T09:09:49;15.50;99.90
9215;DHT22;4642;51.364;6.788;2022-10-26T09:12:29;15.40;99.90
9215;DHT22;4642;51.364;6.788;2022-10-26T09:20:54;15.50;99.90
9215;DHT22;4642;51.364;6.788;2022-10-26T09:23:30;15.50;99.90
9215;DHT22;4642;51.364;6.788;2022-10-26T09:26:03;15.60;99.90
9215;DHT22;4642;51.364;6.788;2022-10-26T09:28:36;15.60;99.90
9215;DHT22;4642;51.364;6.788;2022-10-26T09:31:03;15.60;99.90
9215;DHT22;4642;51.364;6.788;2022-10-26T09:33:33;15.80;99.90
9215;DHT22;4642;51.364;6.788;2022-10-26T09:38:40;15.90;99.90
9215;DHT22;4642;51.364;6.788;2022-10-26T09:41:24;16.00;99.90
9215;DHT22;4642;51.364;6.788;2022-10-26T09:44:00;16.00;99.90
9215;DHT22;4642;51.364;6.788;2022-10-26T09:46:30;16.00;99.90
9215;DHT22;4642;51.364;6.788;2022-10-26T09:49:00;16.00;99.90
9215;DHT22;4642;51.364;6.788;2022-10-26T09:51:29;16.10;99.90
9215;DHT22;4642;51.364;6.788;2022-10-26T09:53:57;16.20;99.90
9215;DHT22;4642;51.364;6.788;2022-10-26T09:56:25;16.20;99.90
9215;DHT22;4642;51.364;6.788;2022-10-26T09:58:55;16.20;99.90
9215;DHT22;4642;51.364;6.788;2022-10-26T10:06:41;16.40;99.90
9215;DHT22;4642;51.364;6.788;2022-10-26T10:11:51;16.60;99.90
9215;DHT22;4642;51.364;6.788;2022-10-26T10:14:26;16.60;99.90
9215;DHT22;4642;51.364;6.788;2022-10-26T10:16:56;16.70;99.90
9215;DHT22;4642;51.364;6.788;2022-10-26T10:19:30;16.70;99.90
9215;DHT22;4642;51.364;6.788;2022-10-26T10:22:23;16.80;99.90
9215;DHT22;4642;51.364;6.788;2022-10-26T10:24:59;16.90;99.90
9215;DHT22;4642;51.364;6.788;2022-10-26T10:27:26;16.90;99.90
9215;DHT22;4642;51.364;6.788;2022-10-26T10:29:57;17.00;99.90
9215;DHT22;4642;51.364;6.788;2022-10-26T10:32:24;17.10;99.90
9215;DHT22;4642;51.364;6.788;2022-10-26T10:34:57;17.30;99.90
9215;DHT22;4642;51.364;6.788;2022-10-26T10:37:30;17.20;99.90
9215;DHT22;4642;51.364;6.788;2022-10-26T10:40:03;17.40;99.90
9215;DHT22;4642;51.364;6.788;2022-10-26T10:42:33;17.40;99.90
9215;DHT22;4642;51.364;6.788;2022-10-26T10:44:59;17.40;99.90
9215;DHT22;4642;51.364;6.788;2022-10-26T10:47:28;17.40;99.90
9215;DHT22;4642;51.364;6.788;2022-10-26T10:50:17;17.40;99.90
9215;DHT22;4642;51.364;6.788;2022-10-26T10:52:44;17.50;99.90
9215;DHT22;4642;51.364;6.788;2022-10-26T10:55:15;17.60;99.90
9215;DHT22;4642;51.364;6.788;2022-10-26T11:00:30;17.70;99.90
9215;DHT22;4642;51.364;6.788;2022-10-26T11:05:59;17.80;99.90
9215;DHT22;4642;51.364;6.788;2022-10-26T11:11:28;18.00;99.90
9215;DHT22;4642;51.364;6.788;2022-10-26T11:14:06;18.10;99.90
9215;DHT22;4642;51.364;6.788;2022-10-26T11:16:42;18.20;99.90
9215;DHT22;4642;51.364;6.788;2022-10-26T11:19:45;18.20;99.90
9215;DHT22;4642;51.364;6.788;2022-10-26T11:22:14;18.40;99.90
9215;DHT22;4642;51.364;6.788;2022-10-26T11:24:48;18.50;99.90
9215;DHT22;4642;51.364;6.788;2022-10-26T11:30:05;18.60;99.90
9215;DHT22;4642;51.364;6.788;2022-10-26T11:35:12;18.80;99.90
9215;DHT22;4642;51.364;6.788;2022-10-26T11:37:57;18.80;99.90
9215;DHT22;4642;51.364;6.788;2022-10-26T11:40:48;18.80;99.90
9215;DHT22;4642;51.364;6.788;2022-10-26T11:48:59;19.20;99.90
9215;DHT22;4642;51.364;6.788;2022-10-26T11:51:40;19.20;99.90
9215;DHT22;4642;51.364;6.788;2022-10-26T11:54:33;19.20;99.90
9215;DHT22;4642;51.364;6.788;2022-10-26T11:57:00;19.40;99.90
9215;DHT22;4642;51.364;6.788;2022-10-26T11:59:29;19.40;99.90
9215;DHT22;4642;51.364;6.788;2022-10-26T12:02:18;19.40;99.90
9215;DHT22;4642;51.364;6.788;2022-10-26T12:04:49;19.40;99.90
9215;DHT22;4642;51.364;6.788;2022-10-26T12:07:23;19.40;99.90
9215;DHT22;4642;51.364;6.788;2022-10-26T12:09:49;19.50;99.90
9215;DHT22;4642;51.364;6.788;2022-10-26T12:12:25;19.60;99.90
9215;DHT22;4642;51.364;6.788;2022-10-26T12:15:02;19.60;99.90
9215;DHT22;4642;51.364;6.788;2022-10-26T12:17:49;19.60;99.90
9215;DHT22;4642;51.364;6.788;2022-10-26T12:23:16;19.60;1.00
9215;DHT22;4642;51.364;6.788;2022-10-26T12:25:42;19.70;1.00
9215;DHT22;4642;51.364;6.788;2022-10-26T12:34:11;19.80;1.00
9215;DHT22;4642;51.364;6.788;2022-10-26T12:39:37;19.90;1.00
9215;DHT22;4642;51.364;6.788;2022-10-26T12:42:26;19.90;99.90
9215;DHT22;4642;51.364;6.788;2022-10-26T12:52:47;19.90;1.00
9215;DHT22;4642;51.364;6.788;2022-10-26T12:58:02;19.80;1.00
9215;DHT22;4642;51.364;6.788;2022-10-26T13:00:39;19.80;1.00
9215;DHT22;4642;51.364;6.788;2022-10-26T13:03:27;19.70;1.00
9215;DHT22;4642;51.364;6.788;2022-10-26T13:06:36;19.80;1.00
9215;DHT22;4642;51.364;6.788;2022-10-26T13:09:30;20.00;99.90
9215;DHT22;4642;51.364;6.788;2022-10-26T13:11:59;20.00;99.90
9215;DHT22;4642;51.364;6.788;2022-10-26T13:16:57;20.00;1.00
9215;DHT22;4642;51.364;6.788;2022-10-26T13:19:35;20.00;1.00
9215;DHT22;4642;51.364;6.788;2022-10-26T13:22:03;20.00;1.00
9215;DHT22;4642;51.364;6.788;2022-10-26T13:24:31;20.10;1.00
9215;DHT22;4642;51.364;6.788;2022-10-26T13:29:31;20.10;99.90
9215;DHT22;4642;51.364;6.788;2022-10-26T13:31:58;20.10;1.00
9215;DHT22;4642;51.364;6.788;2022-10-26T13:34:27;20.20;1.00
9215;DHT22;4642;51.364;6.788;2022-10-26T13:37:18;20.30;99.90
9215;DHT22;4642;51.364;6.788;2022-10-26T13:39:46;20.30;99.90
9215;DHT22;4642;51.364;6.788;2022-10-26T13:42:19;20.30;1.00
9215;DHT22;4642;51.364;6.788;2022-10-26T13:45:00;20.30;1.00
9215;DHT22;4642;51.364;6.788;2022-10-26T13:47:28;20.30;99.90
9215;DHT22;4642;51.364;6.788;2022-10-26T13:49:58;20.20;99.90
9215;DHT22;4642;51.364;6.788;2022-10-26T13:52:33;20.20;1.00
9215;DHT22;4642;51.364;6.788;2022-10-26T13:55:13;20.30;99.90
9215;DHT22;4642;51.364;6.788;2022-10-26T13:57:59;20.20;99.90
9215;DHT22;4642;51.364;6.788;2022-10-26T14:00:25;20.10;99.90
9215;DHT22;4642;51.364;6.788;2022-10-26T14:02:51;20.10;99.90
9215;DHT22;4642;51.364;6.788;2022-10-26T14:05:17;20.10;72.80
9215;DHT22;4642;51.364;6.788;2022-10-26T14:07:44;20.00;99.90
9215;DHT22;4642;51.364;6.788;2022-10-26T14:10:29;20.00;99.90
9215;DHT22;4642;51.364;6.788;2022-10-26T14:12:56;20.00;1.00
9215;DHT22;4642;51.364;6.788;2022-10-26T14:15:32;20.00;1.00
9215;DHT22;4642;51.364;6.788;2022-10-26T14:18:00;20.00;1.00
9215;DHT22;4642;51.364;6.788;2022-10-26T14:20:27;20.00;1.00
9215;DHT22;4642;51.364;6.788;2022-10-26T14:22:53;20.00;99.90
9215;DHT22;4642;51.364;6.788;2022-10-26T14:25:27;20.00;99.90
9215;DHT22;4642;51.364;6.788;2022-10-26T14:27:54;19.90;1.00
9215;DHT22;4642;51.364;6.788;2022-10-26T14:30:32;19.90;1.00
9215;DHT22;4642;51.364;6.788;2022-10-26T14:32:58;19.90;99.90
9215;DHT22;4642;51.364;6.788;2022-10-26T14:35:28;19.90;99.90
9215;DHT22;4642;51.364;6.788;2022-10-26T14:38:04;19.80;1.00
9215;DHT22;4642;51.364;6.788;2022-10-26T14:40:33;19.80;99.90
9215;DHT22;4642;51.364;6.788;2022-10-26T14:43:01;19.80;99.90
9215;DHT22;4642;51.364;6.788;2022-10-26T14:45:35;19.70;99.90
9215;DHT22;4642;51.364;6.788;2022-10-26T14:48:03;19.70;99.90
9215;DHT22;4642;51.364;6.788;2022-10-26T14:50:30;19.60;1.00
9215;DHT22;4642;51.364;6.788;2022-10-26T14:53:03;19.60;99.90
9215;DHT22;4642;51.364;6.788;2022-10-26T14:56:15;19.60;99.90
9215;DHT22;4642;51.364;6.788;2022-10-26T14:58:42;19.60;99.90
9215;DHT22;4642;51.364;6.788;2022-10-26T15:03:42;19.50;1.00
9215;DHT22;4642;51.364;6.788;2022-10-26T15:08:57;19.40;1.00
9215;DHT22;4642;51.364;6.788;2022-10-26T15:11:27;19.50;21.30
9215;DHT22;4642;51.364;6.788;2022-10-26T15:13:54;19.30;99.90
9215;DHT22;4642;51.364;6.788;2022-10-26T15:16:24;19.30;99.90
9215;DHT22;4642;51.364;6.788;2022-10-26T15:19:12;19.20;1.00
9215;DHT22;4642;51.364;6.788;2022-10-26T15:21:45;19.20;1.00
9215;DHT22;4642;51.364;6.788;2022-10-26T15:24:44;19.10;1.00
9215;DHT22;4642;51.364;6.788;2022-10-26T15:27:15;19.10;1.00
9215;DHT22;4642;51.364;6.788;2022-10-26T15:29:45;19.00;1.00
9215;DHT22;4642;51.364;6.788;2022-10-26T15:32:31;18.90;1.00
9215;DHT22;4642;51.364;6.788;2022-10-26T15:37:45;18.80;1.00
9215;DHT22;4642;51.364;6.788;2022-10-26T15:40:12;18.80;1.00
9215;DHT22;4642;51.364;6.788;2022-10-26T15:42:39;18.70;1.00
9215;DHT22;4642;51.364;6.788;2022-10-26T15:45:19;18.70;1.00
9215;DHT22;4642;51.364;6.788;2022-10-26T15:47:45;18.60;1.00
9215;DHT22;4642;51.364;6.788;2022-10-26T15:50:15;18.60;1.00
9215;DHT22;4642;51.364;6.788;2022-10-26T15:52:42;18.50;1.00
9215;DHT22;4642;51.364;6.788;2022-10-26T15:55:08;18.50;1.00
9215;DHT22;4642;51.364;6.788;2022-10-26T15:57:34;18.40;1.00
9215;DHT22;4642;51.364;6.788;2022-10-26T16:00:00;18.40;1.00
9215;DHT22;4642;51.364;6.788;2022-10-26T16:02:26;18.30;1.00
9215;DHT22;4642;51.364;6.788;2022-10-26T16:04:52;18.30;1.00
9215;DHT22;4642;51.364;6.788;2022-10-26T16:07:19;18.20;1.00
9215;DHT22;4642;51.364;6.788;2022-10-26T16:09:45;18.10;1.00
9215;DHT22;4642;51.364;6.788;2022-10-26T16:12:12;18.10;1.00
9215;DHT22;4642;51.364;6.788;2022-10-26T16:14:38;18.00;1.00
9215;DHT22;4642;51.364;6.788;2022-10-26T16:17:05;17.90;1.00
9215;DHT22;4642;51.364;6.788;2022-10-26T16:19:32;17.80;99.90
9215;DHT22;4642;51.364;6.788;2022-10-26T16:21:58;17.70;99.90
9215;DHT22;4642;51.364;6.788;2022-10-26T16:24:25;17.70;99.90
9215;DHT22;4642;51.364;6.788;2022-10-26T16:26:51;17.70;27.00
9215;DHT22;4642;51.364;6.788;2022-10-26T16:29:16;17.60;1.00
9215;DHT22;4642;51.364;6.788;2022-10-26T16:31:42;17.60;1.00
9215;DHT22;4642;51.364;6.788;2022-10-26T16:34:07;17.60;1.00
9215;DHT22;4642;51.364;6.788;2022-10-26T16:36:33;17.50;1.00
9215;DHT22;4642;51.364;6.788;2022-10-26T16:38:59;17.50;1.00
9215;DHT22;4642;51.364;6.788;2022-10-26T16:41:24;17.50;1.00
9215;DHT22;4642;51.364;6.788;2022-10-26T16:43:50;17.40;7.20
9215;DHT22;4642;51.364;6.788;2022-10-26T16:46:20;17.30;23.90
9215;DHT22;4642;51.364;6.788;2022-10-26T16:48:47;17.40;36.40
9215;DHT22;4642;51.364;6.788;2022-10-26T16:51:15;17.30;1.70
9215;DHT22;4642;51.364;6.788;2022-10-26T16:53:41;17.30;9.60
9215;DHT22;4642;51.364;6.788;2022-10-26T16:56:12;17.20;30.10
9215;DHT22;4642;51.364;6.788;2022-10-26T16:58:39;17.20;81.40
9215;DHT22;4642;51.364;6.788;2022-10-26T17:01:06;17.20;99.90
9215;DHT22;4642;51.364;6.788;2022-10-26T17:03:32;17.10;99.90
9215;DHT22;4642;51.364;6.788;2022-10-26T17:06:01;17.00;99.90
9215;DHT22;4642;51.364;6.788;2022-10-26T17:08:28;17.00;99.90
9215;DHT22;4642;51.364;6.788;2022-10-26T17:10:54;16.90;99.90
9215;DHT22;4642;51.364;6.788;2022-10-26T17:13:26;16.90;99.90
9215;DHT22;4642;51.364;6.788;2022-10-26T17:15:51;16.70;99.90
9215;DHT22;4642;51.364;6.788;2022-10-26T17:18:17;16.70;99.90
9215;DHT22;4642;51.364;6.788;2022-10-26T17:20:49;16.60;99.90
9215;DHT22;4642;51.364;6.788;2022-10-26T17:23:16;16.50;99.90
9215;DHT22;4642;51.364;6.788;2022-10-26T17:25:42;16.40;99.90
9215;DHT22;4642;51.364;6.788;2022-10-26T17:28:07;16.30;99.90
9215;DHT22;4642;51.364;6.788;2022-10-26T17:30:33;16.30;99.90
9215;DHT22;4642;51.364;6.788;2022-10-26T17:32:58;16.10;99.90
9215;DHT22;4642;51.364;6.788;2022-10-26T17:35:24;16.10;99.90
9215;DHT22;4642;51.364;6.788;2022-10-26T17:37:49;16.00;99.90
9215;DHT22;4642;51.364;6.788;2022-10-26T17:40:15;16.00;99.90
9215;DHT22;4642;51.364;6.788;2022-10-26T17:42:41;15.90;99.90
9215;DHT22;4642;51.364;6.788;2022-10-26T17:45:07;15.90;99.90
9215;DHT22;4642;51.364;6.788;2022-10-26T17:47:34;15.80;99.90
9215;DHT22;4642;51.364;6.788;2022-10-26T17:49:59;15.70;99.90
9215;DHT22;4642;51.364;6.788;2022-10-26T17:52:25;15.70;99.90
9215;DHT22;4642;51.364;6.788;2022-10-26T17:54:50;15.70;99.90
9215;DHT22;4642;51.364;6.788;2022-10-26T17:57:16;15.70;99.90
9215;DHT22;4642;51.364;6.788;2022-10-26T17:59:42;15.60;99.90
9215;DHT22;4642;51.364;6.788;2022-10-26T18:02:09;15.60;99.90
9215;DHT22;4642;51.364;6.788;2022-10-26T18:04:34;15.60;99.90
9215;DHT22;4642;51.364;6.788;2022-10-26T18:07:00;15.50;99.90
9215;DHT22;4642;51.364;6.788;2022-10-26T18:09:26;15.50;99.90
9215;DHT22;4642;51.364;6.788;2022-10-26T18:11:51;15.50;99.90